sensor_id;sensor_type;location;lat;lon;timestamp;P1;durP1;ratioP1;P2;durP2;ratioP2
48423;SDS011;34232;42.502;26.014;2024-03-08T00:01:47;34.13;;;19.10;;
48423;SDS011;34232;42.502;26.014;2024-03-08T00:04:13;38.13;;;20.33;;
48423;SDS011;34232;42.502;26.014;2024-03-08T00:06:40;34.63;;;19.70;;
48423;SDS011;34232;42.502;26.014;2024-03-08T00:09:06;36.05;;;20.05;;
48423;SDS011;34232;42.502;26.014;2024-03-08T00:11:33;37.38;;;19.75;;
48423;SDS011;34232;42.502;26.014;2024-03-08T00:16:25;31.48;;;17.23;;
48423;SDS011;34232;42.502;26.014;2024-03-08T00:18:50;35.22;;;18.90;;
48423;SDS011;34232;42.502;26.014;2024-03-08T00:21:16;39.25;;;20.73;;
48423;SDS011;34232;42.502;26.014;2024-03-08T00:23:41;39.22;;;21.05;;
48423;SDS011;34232;42.502;26.014;2024-03-08T00:26:07;34.17;;;19.20;;
48423;SDS011;34232;42.502;26.014;2024-03-08T00:28:32;32.63;;;20.58;;
48423;SDS011;34232;42.502;26.014;2024-03-08T00:30:59;38.40;;;18.77;;
48423;SDS011;34232;42.502;26.014;2024-03-08T00:33:25;37.65;;;19.15;;
48423;SDS011;34232;42.502;26.014;2024-03-08T00:35:50;30.83;;;18.70;;
48423;SDS011;34232;42.502;26.014;2024-03-08T00:38:16;35.97;;;20.30;;
48423;SDS011;34232;42.502;26.014;2024-03-08T00:40:43;37.28;;;19.02;;
48423;SDS011;34232;42.502;26.014;2024-03-08T00:43:09;36.28;;;20.42;;
48423;SDS011;34232;42.502;26.014;2024-03-08T00:45:34;36.45;;;19.33;;
48423;SDS011;34232;42.502;26.014;2024-03-08T00:48:00;37.50;;;19.97;;
48423;SDS011;34232;42.502;26.014;2024-03-08T00:50:25;34.90;;;20.10;;
48423;SDS011;34232;42.502;26.014;2024-03-08T00:52:51;35.93;;;19.93;;
48423;SDS011;34232;42.502;26.014;2024-03-08T00:55:16;36.30;;;20.17;;
48423;SDS011;34232;42.502;26.014;2024-03-08T00:57:42;36.90;;;19.80;;
48423;SDS011;34232;42.502;26.014;2024-03-08T01:00:07;36.42;;;20.73;;
48423;SDS011;34232;42.502;26.014;2024-03-08T01:02:37;35.47;;;19.50;;
48423;SDS011;34232;42.502;26.014;2024-03-08T01:05:05;36.53;;;19.88;;
48423;SDS011;34232;42.502;26.014;2024-03-08T01:07:34;31.67;;;19.92;;
48423;SDS011;34232;42.502;26.014;2024-03-08T01:10:01;32.85;;;18.75;;
48423;SDS011;34232;42.502;26.014;2024-03-08T01:12:28;31.20;;;19.10;;
48423;SDS011;34232;42.502;26.014;2024-03-08T01:14:54;35.58;;;18.73;;
48423;SDS011;34232;42.502;26.014;2024-03-08T01:17:19;35.30;;;19.63;;
48423;SDS011;34232;42.502;26.014;2024-03-08T01:19:45;34.73;;;19.60;;
48423;SDS011;34232;42.502;26.014;2024-03-08T01:22:10;30.50;;;17.33;;
48423;SDS011;34232;42.502;26.014;2024-03-08T01:24:36;32.57;;;19.33;;
48423;SDS011;34232;42.502;26.014;2024-03-08T01:27:02;32.13;;;20.87;;
48423;SDS011;34232;42.502;26.014;2024-03-08T01:29:28;34.15;;;18.80;;
48423;SDS011;34232;42.502;26.014;2024-03-08T01:31:54;30.95;;;17.83;;
48423;SDS011;34232;42.502;26.014;2024-03-08T01:34:21;33.35;;;17.75;;
48423;SDS011;34232;42.502;26.014;2024-03-08T01:36:48;29.67;;;17.90;;
48423;SDS011;34232;42.502;26.014;2024-03-08T01:39:13;30.80;;;17.42;;
48423;SDS011;34232;42.502;26.014;2024-03-08T01:41:39;32.37;;;18.53;;
48423;SDS011;34232;42.502;26.014;2024-03-08T01:44:05;34.00;;;18.77;;
48423;SDS011;34232;42.502;26.014;2024-03-08T01:46:32;28.45;;;17.45;;
48423;SDS011;34232;42.502;26.014;2024-03-08T01:48:59;34.13;;;17.90;;
48423;SDS011;34232;42.502;26.014;2024-03-08T01:51:26;30.55;;;17.45;;
48423;SDS011;34232;42.502;26.014;2024-03-08T01:53:53;29.15;;;17.20;;
48423;SDS011;34232;42.502;26.014;2024-03-08T01:56:20;32.28;;;17.88;;
48423;SDS011;34232;42.502;26.014;2024-03-08T01:58:46;30.02;;;17.77;;
48423;SDS011;34232;42.502;26.014;2024-03-08T02:01:12;27.08;;;16.25;;
48423;SDS011;34232;42.502;26.014;2024-03-08T02:03:40;29.58;;;16.67;;
48423;SDS011;34232;42.502;26.014;2024-03-08T02:06:08;33.97;;;17.13;;
48423;SDS011;34232;42.502;26.014;2024-03-08T02:08:35;31.23;;;17.92;;
48423;SDS011;34232;42.502;26.014;2024-03-08T02:11:01;26.25;;;16.85;;
48423;SDS011;34232;42.502;26.014;2024-03-08T02:13:27;27.27;;;17.00;;
48423;SDS011;34232;42.502;26.014;2024-03-08T02:15:54;26.90;;;16.63;;
48423;SDS011;34232;42.502;26.014;2024-03-08T02:18:26;28.13;;;16.42;;
48423;SDS011;34232;42.502;26.014;2024-03-08T02:20:53;26.30;;;15.50;;
48423;SDS011;34232;42.502;26.014;2024-03-08T02:23:23;26.65;;;15.25;;
48423;SDS011;34232;42.502;26.014;2024-03-08T02:25:53;31.17;;;17.60;;
48423;SDS011;34232;42.502;26.014;2024-03-08T02:28:19;24.83;;;15.43;;
48423;SDS011;34232;42.502;26.014;2024-03-08T02:30:49;31.92;;;17.63;;
48423;SDS011;34232;42.502;26.014;2024-03-08T02:33:21;26.17;;;15.80;;
48423;SDS011;34232;42.502;26.014;2024-03-08T02:35:48;27.00;;;14.73;;
48423;SDS011;34232;42.502;26.014;2024-03-08T02:38:14;28.00;;;15.50;;
48423;SDS011;34232;42.502;26.014;2024-03-08T02:40:47;25.95;;;16.13;;
48423;SDS011;34232;42.502;26.014;2024-03-08T02:43:16;26.00;;;16.10;;
48423;SDS011;34232;42.502;26.014;2024-03-08T02:45:43;29.17;;;16.00;;
48423;SDS011;34232;42.502;26.014;2024-03-08T02:48:12;26.98;;;16.17;;
48423;SDS011;34232;42.502;26.014;2024-03-08T02:53:10;27.27;;;14.48;;
48423;SDS011;34232;42.502;26.014;2024-03-08T02:55:37;21.90;;;15.30;;
48423;SDS011;34232;42.502;26.014;2024-03-08T02:58:04;25.45;;;15.10;;
48423;SDS011;34232;42.502;26.014;2024-03-08T03:00:30;24.85;;;15.70;;
48423;SDS011;34232;42.502;26.014;2024-03-08T03:02:56;25.83;;;16.17;;
48423;SDS011;34232;42.502;26.014;2024-03-08T03:05:22;25.13;;;15.13;;
48423;SDS011;34232;42.502;26.014;2024-03-08T03:07:49;25.27;;;15.85;;
48423;SDS011;34232;42.502;26.014;2024-03-08T03:10:16;27.30;;;15.73;;
48423;SDS011;34232;42.502;26.014;2024-03-08T03:12:42;27.17;;;15.43;;
48423;SDS011;34232;42.502;26.014;2024-03-08T03:15:07;26.23;;;16.20;;
48423;SDS011;34232;42.502;26.014;2024-03-08T03:17:33;24.07;;;15.13;;
48423;SDS011;34232;42.502;26.014;2024-03-08T03:19:59;27.52;;;17.75;;
48423;SDS011;34232;42.502;26.014;2024-03-08T03:22:30;25.42;;;14.52;;
48423;SDS011;34232;42.502;26.014;2024-03-08T03:24:55;25.00;;;18.13;;
48423;SDS011;34232;42.502;26.014;2024-03-08T03:27:23;25.90;;;16.10;;
48423;SDS011;34232;42.502;26.014;2024-03-08T03:29:49;29.90;;;15.95;;
48423;SDS011;34232;42.502;26.014;2024-03-08T03:32:17;21.95;;;14.68;;
48423;SDS011;34232;42.502;26.014;2024-03-08T03:34:43;26.35;;;15.50;;
48423;SDS011;34232;42.502;26.014;2024-03-08T03:37:09;24.00;;;15.60;;
48423;SDS011;34232;42.502;26.014;2024-03-08T03:39:38;24.27;;;14.13;;
48423;SDS011;34232;42.502;26.014;2024-03-08T03:42:16;29.15;;;17.83;;
48423;SDS011;34232;42.502;26.014;2024-03-08T03:44:44;21.25;;;15.23;;
48423;SDS011;34232;42.502;26.014;2024-03-08T03:47:10;22.90;;;13.80;;
48423;SDS011;34232;42.502;26.014;2024-03-08T03:49:36;23.13;;;16.25;;
48423;SDS011;34232;42.502;26.014;2024-03-08T03:52:01;20.35;;;13.95;;
48423;SDS011;34232;42.502;26.014;2024-03-08T03:54:27;24.00;;;14.73;;
48423;SDS011;34232;42.502;26.014;2024-03-08T03:56:55;22.65;;;14.07;;
48423;SDS011;34232;42.502;26.014;2024-03-08T03:59:21;25.75;;;14.40;;
48423;SDS011;34232;42.502;26.014;2024-03-08T04:01:46;26.73;;;15.77;;
48423;SDS011;34232;42.502;26.014;2024-03-08T04:04:11;22.87;;;15.40;;
48423;SDS011;34232;42.502;26.014;2024-03-08T04:06:37;28.10;;;15.60;;
48423;SDS011;34232;42.502;26.014;2024-03-08T04:09:03;27.63;;;14.43;;
48423;SDS011;34232;42.502;26.014;2024-03-08T04:11:29;26.45;;;15.98;;
48423;SDS011;34232;42.502;26.014;2024-03-08T04:13:55;26.00;;;16.33;;
48423;SDS011;34232;42.502;26.014;2024-03-08T04:16:21;26.03;;;16.07;;
48423;SDS011;34232;42.502;26.014;2024-03-08T04:18:46;23.77;;;14.90;;
48423;SDS011;34232;42.502;26.014;2024-03-08T04:21:12;23.07;;;15.03;;
48423;SDS011;34232;42.502;26.014;2024-03-08T04:23:38;24.05;;;14.95;;
48423;SDS011;34232;42.502;26.014;2024-03-08T04:26:04;25.77;;;15.60;;
48423;SDS011;34232;42.502;26.014;2024-03-08T04:28:31;20.60;;;14.30;;
48423;SDS011;34232;42.502;26.014;2024-03-08T04:30:57;26.40;;;16.57;;
48423;SDS011;34232;42.502;26.014;2024-03-08T04:33:25;25.33;;;15.55;;
48423;SDS011;34232;42.502;26.014;2024-03-08T04:35:51;26.75;;;15.73;;
48423;SDS011;34232;42.502;26.014;2024-03-08T04:38:16;26.03;;;15.60;;
48423;SDS011;34232;42.502;26.014;2024-03-08T04:40:42;22.60;;;14.23;;
48423;SDS011;34232;42.502;26.014;2024-03-08T04:43:08;28.40;;;16.37;;
48423;SDS011;34232;42.502;26.014;2024-03-08T04:45:35;25.77;;;16.40;;
48423;SDS011;34232;42.502;26.014;2024-03-08T04:48:01;23.67;;;14.17;;
48423;SDS011;34232;42.502;26.014;2024-03-08T04:50:27;23.47;;;15.10;;
48423;SDS011;34232;42.502;26.014;2024-03-08T04:52:54;23.40;;;15.18;;
48423;SDS011;34232;42.502;26.014;2024-03-08T04:55:20;27.03;;;15.73;;
48423;SDS011;34232;42.502;26.014;2024-03-08T04:57:46;28.97;;;17.03;;
48423;SDS011;34232;42.502;26.014;2024-03-08T05:00:12;25.17;;;16.17;;
48423;SDS011;34232;42.502;26.014;2024-03-08T05:02:39;26.42;;;16.25;;
48423;SDS011;34232;42.502;26.014;2024-03-08T05:05:05;26.27;;;16.20;;
48423;SDS011;34232;42.502;26.014;2024-03-08T05:07:38;25.38;;;16.38;;
48423;SDS011;34232;42.502;26.014;2024-03-08T05:12:31;23.48;;;14.25;;
48423;SDS011;34232;42.502;26.014;2024-03-08T05:14:57;26.42;;;15.82;;
48423;SDS011;34232;42.502;26.014;2024-03-08T05:17:22;27.30;;;15.43;;
48423;SDS011;34232;42.502;26.014;2024-03-08T05:19:49;25.02;;;16.98;;
48423;SDS011;34232;42.502;26.014;2024-03-08T05:22:15;27.60;;;16.10;;
48423;SDS011;34232;42.502;26.014;2024-03-08T05:24:40;24.87;;;14.97;;
48423;SDS011;34232;42.502;26.014;2024-03-08T05:27:06;29.97;;;16.03;;
48423;SDS011;34232;42.502;26.014;2024-03-08T05:29:31;24.87;;;15.53;;
48423;SDS011;34232;42.502;26.014;2024-03-08T05:31:58;25.02;;;15.75;;
48423;SDS011;34232;42.502;26.014;2024-03-08T05:34:24;27.95;;;16.05;;
48423;SDS011;34232;42.502;26.014;2024-03-08T05:36:49;25.70;;;15.90;;
48423;SDS011;34232;42.502;26.014;2024-03-08T05:39:16;23.27;;;14.33;;
48423;SDS011;34232;42.502;26.014;2024-03-08T05:41:43;24.85;;;14.77;;
48423;SDS011;34232;42.502;26.014;2024-03-08T05:44:09;22.77;;;15.05;;
48423;SDS011;34232;42.502;26.014;2024-03-08T05:46:35;24.30;;;15.13;;
48423;SDS011;34232;42.502;26.014;2024-03-08T05:49:08;24.42;;;14.57;;
48423;SDS011;34232;42.502;26.014;2024-03-08T05:51:35;26.88;;;16.17;;
48423;SDS011;34232;42.502;26.014;2024-03-08T05:54:05;26.58;;;17.40;;
48423;SDS011;34232;42.502;26.014;2024-03-08T05:56:35;25.40;;;14.35;;
48423;SDS011;34232;42.502;26.014;2024-03-08T05:59:01;28.30;;;16.90;;
48423;SDS011;34232;42.502;26.014;2024-03-08T06:01:27;27.20;;;16.50;;
48423;SDS011;34232;42.502;26.014;2024-03-08T06:03:54;24.83;;;16.65;;
48423;SDS011;34232;42.502;26.014;2024-03-08T06:06:25;22.48;;;15.80;;
48423;SDS011;34232;42.502;26.014;2024-03-08T06:08:51;23.65;;;15.73;;
48423;SDS011;34232;42.502;26.014;2024-03-08T06:11:17;31.30;;;18.27;;
48423;SDS011;34232;42.502;26.014;2024-03-08T06:13:44;24.13;;;15.60;;
48423;SDS011;34232;42.502;26.014;2024-03-08T06:16:10;29.98;;;17.15;;
48423;SDS011;34232;42.502;26.014;2024-03-08T06:18:36;25.88;;;17.40;;
48423;SDS011;34232;42.502;26.014;2024-03-08T06:21:03;25.08;;;16.38;;
48423;SDS011;34232;42.502;26.014;2024-03-08T06:23:31;30.17;;;19.88;;
48423;SDS011;34232;42.502;26.014;2024-03-08T06:25:59;29.08;;;19.08;;
48423;SDS011;34232;42.502;26.014;2024-03-08T06:28:24;30.63;;;21.13;;
48423;SDS011;34232;42.502;26.014;2024-03-08T06:30:50;28.10;;;18.45;;
48423;SDS011;34232;42.502;26.014;2024-03-08T06:33:16;34.80;;;22.10;;
48423;SDS011;34232;42.502;26.014;2024-03-08T06:35:43;30.48;;;19.77;;
48423;SDS011;34232;42.502;26.014;2024-03-08T06:38:08;27.83;;;19.87;;
48423;SDS011;34232;42.502;26.014;2024-03-08T06:40:34;26.00;;;16.80;;
48423;SDS011;34232;42.502;26.014;2024-03-08T06:42:59;28.30;;;17.00;;
48423;SDS011;34232;42.502;26.014;2024-03-08T06:45:25;26.80;;;17.77;;
48423;SDS011;34232;42.502;26.014;2024-03-08T06:47:51;25.87;;;16.07;;
48423;SDS011;34232;42.502;26.014;2024-03-08T06:50:16;21.07;;;14.80;;
48423;SDS011;34232;42.502;26.014;2024-03-08T06:52:42;23.03;;;14.03;;
48423;SDS011;34232;42.502;26.014;2024-03-08T06:55:08;23.02;;;13.57;;
48423;SDS011;34232;42.502;26.014;2024-03-08T06:57:38;22.17;;;13.77;;
48423;SDS011;34232;42.502;26.014;2024-03-08T07:00:05;25.30;;;14.82;;
48423;SDS011;34232;42.502;26.014;2024-03-08T07:02:34;21.88;;;15.35;;
48423;SDS011;34232;42.502;26.014;2024-03-08T07:05:00;22.25;;;13.75;;
48423;SDS011;34232;42.502;26.014;2024-03-08T07:07:26;23.87;;;15.97;;
48423;SDS011;34232;42.502;26.014;2024-03-08T07:09:52;23.75;;;15.35;;
48423;SDS011;34232;42.502;26.014;2024-03-08T07:12:17;25.37;;;14.93;;
48423;SDS011;34232;42.502;26.014;2024-03-08T07:14:45;24.02;;;15.85;;
48423;SDS011;34232;42.502;26.014;2024-03-08T07:17:11;25.13;;;15.73;;
48423;SDS011;34232;42.502;26.014;2024-03-08T07:19:37;22.50;;;14.48;;
48423;SDS011;34232;42.502;26.014;2024-03-08T07:22:03;24.67;;;14.88;;
48423;SDS011;34232;42.502;26.014;2024-03-08T07:24:30;22.15;;;14.05;;
48423;SDS011;34232;42.502;26.014;2024-03-08T07:27:20;23.90;;;14.93;;
48423;SDS011;34232;42.502;26.014;2024-03-08T07:29:46;20.13;;;13.27;;
48423;SDS011;34232;42.502;26.014;2024-03-08T07:32:12;22.20;;;14.03;;
48423;SDS011;34232;42.502;26.014;2024-03-08T07:34:46;22.80;;;13.93;;
48423;SDS011;34232;42.502;26.014;2024-03-08T07:37:15;25.30;;;13.55;;
48423;SDS011;34232;42.502;26.014;2024-03-08T07:39:41;27.40;;;15.90;;
48423;SDS011;34232;42.502;26.014;2024-03-08T07:42:08;20.55;;;14.10;;
48423;SDS011;34232;42.502;26.014;2024-03-08T07:44:35;20.38;;;13.82;;
48423;SDS011;34232;42.502;26.014;2024-03-08T07:47:00;22.90;;;14.70;;
48423;SDS011;34232;42.502;26.014;2024-03-08T07:49:25;22.00;;;14.30;;
48423;SDS011;34232;42.502;26.014;2024-03-08T07:51:51;25.97;;;14.77;;
48423;SDS011;34232;42.502;26.014;2024-03-08T07:54:17;22.57;;;13.53;;
48423;SDS011;34232;42.502;26.014;2024-03-08T07:56:42;20.60;;;13.77;;
48423;SDS011;34232;42.502;26.014;2024-03-08T07:59:08;20.77;;;13.63;;
48423;SDS011;34232;42.502;26.014;2024-03-08T08:01:33;19.65;;;13.10;;
48423;SDS011;34232;42.502;26.014;2024-03-08T08:03:59;19.03;;;12.23;;
48423;SDS011;34232;42.502;26.014;2024-03-08T08:08:51;20.45;;;12.48;;
48423;SDS011;34232;42.502;26.014;2024-03-08T08:11:17;26.13;;;14.23;;
48423;SDS011;34232;42.502;26.014;2024-03-08T08:13:42;21.05;;;15.00;;
48423;SDS011;34232;42.502;26.014;2024-03-08T08:16:08;20.10;;;14.97;;
48423;SDS011;34232;42.502;26.014;2024-03-08T08:18:34;23.93;;;15.47;;
48423;SDS011;34232;42.502;26.014;2024-03-08T08:21:00;20.17;;;13.80;;
48423;SDS011;34232;42.502;26.014;2024-03-08T08:23:26;23.07;;;14.63;;
48423;SDS011;34232;42.502;26.014;2024-03-08T08:25:52;20.17;;;13.03;;
48423;SDS011;34232;42.502;26.014;2024-03-08T08:28:17;21.87;;;13.70;;
48423;SDS011;34232;42.502;26.014;2024-03-08T08:30:46;19.13;;;12.57;;
48423;SDS011;34232;42.502;26.014;2024-03-08T08:33:13;21.70;;;12.38;;
48423;SDS011;34232;42.502;26.014;2024-03-08T08:35:40;17.92;;;12.27;;
48423;SDS011;34232;42.502;26.014;2024-03-08T08:38:05;21.30;;;12.43;;
48423;SDS011;34232;42.502;26.014;2024-03-08T08:40:32;19.95;;;12.52;;
48423;SDS011;34232;42.502;26.014;2024-03-08T08:42:58;19.13;;;11.27;;
48423;SDS011;34232;42.502;26.014;2024-03-08T08:45:24;16.40;;;11.63;;
48423;SDS011;34232;42.502;26.014;2024-03-08T08:47:50;19.75;;;11.88;;
48423;SDS011;34232;42.502;26.014;2024-03-08T08:50:16;19.80;;;11.13;;
48423;SDS011;34232;42.502;26.014;2024-03-08T08:52:48;22.27;;;11.68;;
48423;SDS011;34232;42.502;26.014;2024-03-08T08:55:14;19.70;;;12.73;;
48423;SDS011;34232;42.502;26.014;2024-03-08T08:57:42;20.87;;;12.17;;
48423;SDS011;34232;42.502;26.014;2024-03-08T09:00:09;16.05;;;10.48;;
48423;SDS011;34232;42.502;26.014;2024-03-08T09:02:39;18.58;;;12.00;;
48423;SDS011;34232;42.502;26.014;2024-03-08T09:05:06;18.73;;;11.77;;
48423;SDS011;34232;42.502;26.014;2024-03-08T09:09:59;17.15;;;9.63;;
48423;SDS011;34232;42.502;26.014;2024-03-08T09:12:25;17.88;;;10.85;;
48423;SDS011;34232;42.502;26.014;2024-03-08T09:14:50;19.93;;;12.27;;
48423;SDS011;34232;42.502;26.014;2024-03-08T09:17:16;19.23;;;11.70;;
48423;SDS011;34232;42.502;26.014;2024-03-08T09:19:48;17.27;;;10.85;;
48423;SDS011;34232;42.502;26.014;2024-03-08T09:22:14;16.42;;;10.73;;
48423;SDS011;34232;42.502;26.014;2024-03-08T09:24:40;17.40;;;11.27;;
48423;SDS011;34232;42.502;26.014;2024-03-08T09:27:05;17.73;;;10.90;;
48423;SDS011;34232;42.502;26.014;2024-03-08T09:29:31;16.20;;;10.57;;
48423;SDS011;34232;42.502;26.014;2024-03-08T09:31:57;15.45;;;11.13;;
48423;SDS011;34232;42.502;26.014;2024-03-08T09:34:22;18.60;;;10.63;;
48423;SDS011;34232;42.502;26.014;2024-03-08T09:36:48;16.80;;;10.63;;
48423;SDS011;34232;42.502;26.014;2024-03-08T09:39:15;19.17;;;10.98;;
48423;SDS011;34232;42.502;26.014;2024-03-08T09:41:45;16.13;;;10.57;;
48423;SDS011;34232;42.502;26.014;2024-03-08T09:44:14;20.52;;;13.13;;
48423;SDS011;34232;42.502;26.014;2024-03-08T09:46:40;18.30;;;11.02;;
48423;SDS011;34232;42.502;26.014;2024-03-08T09:49:06;19.13;;;12.10;;
48423;SDS011;34232;42.502;26.014;2024-03-08T09:51:33;20.67;;;12.27;;
48423;SDS011;34232;42.502;26.014;2024-03-08T09:54:00;19.60;;;12.60;;
48423;SDS011;34232;42.502;26.014;2024-03-08T09:56:29;18.17;;;10.93;;
48423;SDS011;34232;42.502;26.014;2024-03-08T09:58:59;16.35;;;11.35;;
48423;SDS011;34232;42.502;26.014;2024-03-08T10:01:36;17.33;;;10.55;;
48423;SDS011;34232;42.502;26.014;2024-03-08T10:04:04;17.55;;;11.32;;
48423;SDS011;34232;42.502;26.014;2024-03-08T10:06:29;20.17;;;12.60;;
48423;SDS011;34232;42.502;26.014;2024-03-08T10:08:56;24.52;;;15.30;;
48423;SDS011;34232;42.502;26.014;2024-03-08T10:11:22;22.17;;;14.07;;
48423;SDS011;34232;42.502;26.014;2024-03-08T10:13:48;20.90;;;14.07;;
48423;SDS011;34232;42.502;26.014;2024-03-08T10:18:42;20.85;;;11.20;;
48423;SDS011;34232;42.502;26.014;2024-03-08T10:21:08;19.80;;;11.40;;
48423;SDS011;34232;42.502;26.014;2024-03-08T10:23:38;21.02;;;13.20;;
48423;SDS011;34232;42.502;26.014;2024-03-08T10:26:14;17.77;;;11.85;;
48423;SDS011;34232;42.502;26.014;2024-03-08T10:28:44;16.75;;;11.45;;
48423;SDS011;34232;42.502;26.014;2024-03-08T10:31:12;14.45;;;10.35;;
48423;SDS011;34232;42.502;26.014;2024-03-08T10:33:40;18.17;;;10.68;;
48423;SDS011;34232;42.502;26.014;2024-03-08T10:36:08;13.40;;;9.50;;
48423;SDS011;34232;42.502;26.014;2024-03-08T10:38:38;12.93;;;8.75;;
48423;SDS011;34232;42.502;26.014;2024-03-08T10:41:10;14.65;;;9.38;;
48423;SDS011;34232;42.502;26.014;2024-03-08T10:43:43;14.82;;;10.75;;
48423;SDS011;34232;42.502;26.014;2024-03-08T10:46:16;12.63;;;9.23;;
48423;SDS011;34232;42.502;26.014;2024-03-08T10:48:53;11.02;;;7.20;;
48423;SDS011;34232;42.502;26.014;2024-03-08T10:51:24;14.77;;;9.05;;
48423;SDS011;34232;42.502;26.014;2024-03-08T10:53:50;13.20;;;8.65;;
48423;SDS011;34232;42.502;26.014;2024-03-08T10:56:17;13.15;;;8.00;;
48423;SDS011;34232;42.502;26.014;2024-03-08T10:58:43;8.07;;;6.53;;
48423;SDS011;34232;42.502;26.014;2024-03-08T11:01:09;7.13;;;5.90;;
48423;SDS011;34232;42.502;26.014;2024-03-08T11:03:46;10.00;;;6.75;;
48423;SDS011;34232;42.502;26.014;2024-03-08T11:06:16;9.30;;;7.05;;
48423;SDS011;34232;42.502;26.014;2024-03-08T11:08:46;8.45;;;6.60;;
48423;SDS011;34232;42.502;26.014;2024-03-08T11:11:28;12.98;;;7.05;;
48423;SDS011;34232;42.502;26.014;2024-03-08T11:13:57;9.18;;;6.80;;
48423;SDS011;34232;42.502;26.014;2024-03-08T11:18:58;16.70;;;7.07;;
48423;SDS011;34232;42.502;26.014;2024-03-08T11:21:44;11.88;;;6.75;;
48423;SDS011;34232;42.502;26.014;2024-03-08T11:24:11;12.60;;;7.43;;
48423;SDS011;34232;42.502;26.014;2024-03-08T11:26:38;7.53;;;6.15;;
48423;SDS011;34232;42.502;26.014;2024-03-08T11:32:11;10.93;;;6.25;;
48423;SDS011;34232;42.502;26.014;2024-03-08T11:34:40;9.55;;;6.05;;
48423;SDS011;34232;42.502;26.014;2024-03-08T11:37:18;12.00;;;6.00;;
48423;SDS011;34232;42.502;26.014;2024-03-08T11:39:52;10.50;;;6.05;;
48423;SDS011;34232;42.502;26.014;2024-03-08T11:42:24;8.50;;;5.47;;
48423;SDS011;34232;42.502;26.014;2024-03-08T11:44:51;20.85;;;7.05;;
48423;SDS011;34232;42.502;26.014;2024-03-08T11:47:17;8.52;;;6.38;;
48423;SDS011;34232;42.502;26.014;2024-03-08T11:49:43;9.10;;;6.20;;
48423;SDS011;34232;42.502;26.014;2024-03-08T11:52:13;8.80;;;6.28;;
48423;SDS011;34232;42.502;26.014;2024-03-08T11:54:40;13.38;;;9.90;;
48423;SDS011;34232;42.502;26.014;2024-03-08T11:57:06;15.07;;;7.18;;
48423;SDS011;34232;42.502;26.014;2024-03-08T11:59:31;8.70;;;5.03;;
48423;SDS011;34232;42.502;26.014;2024-03-08T12:02:01;6.33;;;5.27;;
48423;SDS011;34232;42.502;26.014;2024-03-08T12:04:29;9.07;;;4.70;;
48423;SDS011;34232;42.502;26.014;2024-03-08T12:06:56;14.35;;;7.90;;
48423;SDS011;34232;42.502;26.014;2024-03-08T12:09:25;8.07;;;5.72;;
48423;SDS011;34232;42.502;26.014;2024-03-08T12:11:50;6.90;;;4.60;;
48423;SDS011;34232;42.502;26.014;2024-03-08T12:14:16;11.63;;;4.37;;
48423;SDS011;34232;42.502;26.014;2024-03-08T12:16:42;7.82;;;4.20;;
48423;SDS011;34232;42.502;26.014;2024-03-08T12:19:08;5.43;;;3.67;;
48423;SDS011;34232;42.502;26.014;2024-03-08T12:21:35;7.47;;;5.15;;
48423;SDS011;34232;42.502;26.014;2024-03-08T12:24:07;8.37;;;5.87;;
48423;SDS011;34232;42.502;26.014;2024-03-08T12:26:34;10.68;;;8.55;;
48423;SDS011;34232;42.502;26.014;2024-03-08T12:29:14;6.57;;;4.47;;
48423;SDS011;34232;42.502;26.014;2024-03-08T12:31:41;4.97;;;2.97;;
48423;SDS011;34232;42.502;26.014;2024-03-08T12:34:07;13.13;;;4.00;;
48423;SDS011;34232;42.502;26.014;2024-03-08T12:36:35;4.13;;;2.95;;
48423;SDS011;34232;42.502;26.014;2024-03-08T12:39:01;7.18;;;5.38;;
48423;SDS011;34232;42.502;26.014;2024-03-08T12:41:28;17.05;;;10.95;;
48423;SDS011;34232;42.502;26.014;2024-03-08T12:43:54;15.33;;;10.40;;
48423;SDS011;34232;42.502;26.014;2024-03-08T12:46:21;45.92;;;29.83;;
48423;SDS011;34232;42.502;26.014;2024-03-08T12:48:47;45.58;;;33.75;;
48423;SDS011;34232;42.502;26.014;2024-03-08T12:51:13;33.15;;;25.25;;
48423;SDS011;34232;42.502;26.014;2024-03-08T12:53:41;26.02;;;21.23;;
48423;SDS011;34232;42.502;26.014;2024-03-08T12:56:09;21.42;;;16.30;;
48423;SDS011;34232;42.502;26.014;2024-03-08T12:58:36;26.90;;;22.27;;
48423;SDS011;34232;42.502;26.014;2024-03-08T13:01:02;14.77;;;13.17;;
48423;SDS011;34232;42.502;26.014;2024-03-08T13:03:30;24.60;;;19.48;;
48423;SDS011;34232;42.502;26.014;2024-03-08T13:05:56;7.30;;;6.57;;
48423;SDS011;34232;42.502;26.014;2024-03-08T13:08:22;4.53;;;4.10;;
48423;SDS011;34232;42.502;26.014;2024-03-08T13:10:50;2.97;;;2.72;;
48423;SDS011;34232;42.502;26.014;2024-03-08T13:13:16;6.00;;;3.60;;
48423;SDS011;34232;42.502;26.014;2024-03-08T13:15:42;3.95;;;3.45;;
48423;SDS011;34232;42.502;26.014;2024-03-08T13:18:08;3.37;;;3.07;;
48423;SDS011;34232;42.502;26.014;2024-03-08T13:20:35;3.97;;;3.67;;
48423;SDS011;34232;42.502;26.014;2024-03-08T13:23:03;4.20;;;3.80;;
48423;SDS011;34232;42.502;26.014;2024-03-08T13:27:55;77.57;;;38.08;;
48423;SDS011;34232;42.502;26.014;2024-03-08T13:30:22;53.00;;;35.85;;
48423;SDS011;34232;42.502;26.014;2024-03-08T13:32:51;43.35;;;29.95;;
48423;SDS011;34232;42.502;26.014;2024-03-08T13:35:17;56.17;;;36.05;;
48423;SDS011;34232;42.502;26.014;2024-03-08T13:37:49;24.38;;;20.40;;
48423;SDS011;34232;42.502;26.014;2024-03-08T13:40:15;15.40;;;13.80;;
48423;SDS011;34232;42.502;26.014;2024-03-08T13:42:43;12.15;;;10.93;;
48423;SDS011;34232;42.502;26.014;2024-03-08T13:45:09;15.27;;;13.67;;
48423;SDS011;34232;42.502;26.014;2024-03-08T13:47:39;12.85;;;11.55;;
48423;SDS011;34232;42.502;26.014;2024-03-08T13:50:06;9.45;;;7.80;;
48423;SDS011;34232;42.502;26.014;2024-03-08T13:52:38;8.25;;;7.15;;
48423;SDS011;34232;42.502;26.014;2024-03-08T13:55:05;4.15;;;3.60;;
48423;SDS011;34232;42.502;26.014;2024-03-08T13:57:31;3.42;;;3.00;;
48423;SDS011;34232;42.502;26.014;2024-03-08T13:59:59;6.05;;;5.50;;
48423;SDS011;34232;42.502;26.014;2024-03-08T14:02:25;4.83;;;4.30;;
48423;SDS011;34232;42.502;26.014;2024-03-08T14:04:54;3.17;;;2.85;;
48423;SDS011;34232;42.502;26.014;2024-03-08T14:07:20;6.57;;;4.27;;
48423;SDS011;34232;42.502;26.014;2024-03-08T14:09:45;5.85;;;3.95;;
48423;SDS011;34232;42.502;26.014;2024-03-08T14:12:11;13.57;;;5.33;;
48423;SDS011;34232;42.502;26.014;2024-03-08T14:14:40;8.83;;;6.70;;
48423;SDS011;34232;42.502;26.014;2024-03-08T14:17:07;7.72;;;5.78;;
48423;SDS011;34232;42.502;26.014;2024-03-08T14:19:35;4.05;;;3.65;;
48423;SDS011;34232;42.502;26.014;2024-03-08T14:24:29;6.45;;;4.53;;
48423;SDS011;34232;42.502;26.014;2024-03-08T14:26:55;17.33;;;7.32;;
48423;SDS011;34232;42.502;26.014;2024-03-08T14:29:23;11.35;;;7.13;;
48423;SDS011;34232;42.502;26.014;2024-03-08T14:31:54;7.50;;;5.88;;
48423;SDS011;34232;42.502;26.014;2024-03-08T14:34:23;8.00;;;6.28;;
48423;SDS011;34232;42.502;26.014;2024-03-08T14:36:52;9.27;;;7.32;;
48423;SDS011;34232;42.502;26.014;2024-03-08T14:39:18;13.57;;;7.87;;